sensor_id;sensor_type;location;lat;lon;timestamp;P1;durP1;ratioP1;P2;durP2;ratioP2
16262;SDS011;8239;48.594;8.598;2023-07-20T00:00:32;3.33;;;2.70;;
16262;SDS011;8239;48.594;8.598;2023-07-20T00:03:12;2.85;;;2.38;;
16262;SDS011;8239;48.594;8.598;2023-07-20T00:05:41;3.58;;;2.70;;
16262;SDS011;8239;48.594;8.598;2023-07-20T00:08:09;3.90;;;2.80;;
16262;SDS011;8239;48.594;8.598;2023-07-20T00:10:36;4.03;;;2.58;;
16262;SDS011;8239;48.594;8.598;2023-07-20T00:13:03;3.22;;;2.80;;
16262;SDS011;8239;48.594;8.598;2023-07-20T00:15:31;4.18;;;2.40;;
16262;SDS011;8239;48.594;8.598;2023-07-20T00:17:58;3.67;;;2.35;;
16262;SDS011;8239;48.594;8.598;2023-07-20T00:20:25;3.38;;;2.75;;
16262;SDS011;8239;48.594;8.598;2023-07-20T00:22:51;3.78;;;2.88;;
16262;SDS011;8239;48.594;8.598;2023-07-20T00:25:20;3.03;;;2.67;;
16262;SDS011;8239;48.594;8.598;2023-07-20T00:27:47;3.78;;;2.60;;
16262;SDS011;8239;48.594;8.598;2023-07-20T00:30:14;4.03;;;2.72;;
16262;SDS011;8239;48.594;8.598;2023-07-20T00:32:43;3.78;;;2.58;;
16262;SDS011;8239;48.594;8.598;2023-07-20T00:35:10;3.35;;;2.60;;
16262;SDS011;8239;48.594;8.598;2023-07-20T00:37:37;3.83;;;2.80;;
16262;SDS011;8239;48.594;8.598;2023-07-20T00:40:05;4.15;;;2.85;;
16262;SDS011;8239;48.594;8.598;2023-07-20T00:42:33;2.67;;;2.47;;
16262;SDS011;8239;48.594;8.598;2023-07-20T00:45:00;3.90;;;2.90;;
16262;SDS011;8239;48.594;8.598;2023-07-20T00:47:27;4.53;;;2.90;;
16262;SDS011;8239;48.594;8.598;2023-07-20T00:49:56;3.67;;;2.47;;
16262;SDS011;8239;48.594;8.598;2023-07-20T00:52:23;3.05;;;2.70;;
16262;SDS011;8239;48.594;8.598;2023-07-20T00:54:51;3.87;;;2.73;;
16262;SDS011;8239;48.594;8.598;2023-07-20T00:57:21;4.37;;;3.00;;
16262;SDS011;8239;48.594;8.598;2023-07-20T00:59:50;4.22;;;2.55;;
16262;SDS011;8239;48.594;8.598;2023-07-20T01:02:17;4.83;;;2.83;;
16262;SDS011;8239;48.594;8.598;2023-07-20T01:04:44;2.80;;;2.60;;
16262;SDS011;8239;48.594;8.598;2023-07-20T01:07:13;4.93;;;2.90;;
16262;SDS011;8239;48.594;8.598;2023-07-20T01:09:48;3.93;;;2.83;;
16262;SDS011;8239;48.594;8.598;2023-07-20T01:12:25;3.70;;;2.77;;
16262;SDS011;8239;48.594;8.598;2023-07-20T01:14:56;4.03;;;2.97;;
16262;SDS011;8239;48.594;8.598;2023-07-20T01:17:23;5.53;;;2.80;;
16262;SDS011;8239;48.594;8.598;2023-07-20T01:19:50;4.27;;;2.80;;
16262;SDS011;8239;48.594;8.598;2023-07-20T01:22:21;4.10;;;2.77;;
16262;SDS011;8239;48.594;8.598;2023-07-20T01:25:08;3.67;;;2.80;;
16262;SDS011;8239;48.594;8.598;2023-07-20T01:27:51;3.17;;;2.57;;
16262;SDS011;8239;48.594;8.598;2023-07-20T01:30:42;4.87;;;2.80;;
16262;SDS011;8239;48.594;8.598;2023-07-20T01:33:18;3.17;;;2.87;;
16262;SDS011;8239;48.594;8.598;2023-07-20T01:35:57;3.10;;;2.80;;
16262;SDS011;8239;48.594;8.598;2023-07-20T01:38:25;5.37;;;2.70;;
16262;SDS011;8239;48.594;8.598;2023-07-20T01:40:53;3.17;;;2.73;;
16262;SDS011;8239;48.594;8.598;2023-07-20T01:43:20;3.63;;;2.90;;
16262;SDS011;8239;48.594;8.598;2023-07-20T01:45:47;4.20;;;2.80;;
16262;SDS011;8239;48.594;8.598;2023-07-20T01:48:14;3.60;;;2.77;;
16262;SDS011;8239;48.594;8.598;2023-07-20T01:50:43;3.27;;;2.77;;
16262;SDS011;8239;48.594;8.598;2023-07-20T01:53:10;4.03;;;2.80;;
16262;SDS011;8239;48.594;8.598;2023-07-20T01:55:37;5.47;;;2.87;;
16262;SDS011;8239;48.594;8.598;2023-07-20T01:58:04;3.20;;;2.60;;
16262;SDS011;8239;48.594;8.598;2023-07-20T02:00:31;3.30;;;2.83;;
16262;SDS011;8239;48.594;8.598;2023-07-20T02:02:58;3.03;;;2.60;;
16262;SDS011;8239;48.594;8.598;2023-07-20T02:05:25;4.07;;;2.87;;
16262;SDS011;8239;48.594;8.598;2023-07-20T02:07:53;5.63;;;2.93;;
16262;SDS011;8239;48.594;8.598;2023-07-20T02:10:20;3.70;;;2.70;;
16262;SDS011;8239;48.594;8.598;2023-07-20T02:12:47;3.90;;;2.80;;
16262;SDS011;8239;48.594;8.598;2023-07-20T02:15:14;5.03;;;2.80;;
16262;SDS011;8239;48.594;8.598;2023-07-20T02:17:42;4.53;;;2.80;;
16262;SDS011;8239;48.594;8.598;2023-07-20T02:20:09;4.73;;;2.80;;
16262;SDS011;8239;48.594;8.598;2023-07-20T02:22:37;3.77;;;2.60;;
16262;SDS011;8239;48.594;8.598;2023-07-20T02:25:05;4.87;;;2.83;;
16262;SDS011;8239;48.594;8.598;2023-07-20T02:27:33;2.80;;;2.60;;
16262;SDS011;8239;48.594;8.598;2023-07-20T02:30:00;2.90;;;2.63;;
16262;SDS011;8239;48.594;8.598;2023-07-20T02:32:28;3.57;;;2.60;;
16262;SDS011;8239;48.594;8.598;2023-07-20T02:34:56;4.00;;;2.70;;
16262;SDS011;8239;48.594;8.598;2023-07-20T02:37:23;2.93;;;2.60;;
16262;SDS011;8239;48.594;8.598;2023-07-20T02:39:50;2.87;;;2.57;;
16262;SDS011;8239;48.594;8.598;2023-07-20T02:42:19;3.10;;;2.50;;
16262;SDS011;8239;48.594;8.598;2023-07-20T02:44:48;3.10;;;2.57;;
16262;SDS011;8239;48.594;8.598;2023-07-20T02:47:15;2.90;;;2.60;;
16262;SDS011;8239;48.594;8.598;2023-07-20T02:49:41;3.70;;;3.00;;
16262;SDS011;8239;48.594;8.598;2023-07-20T02:52:08;3.57;;;2.67;;
16262;SDS011;8239;48.594;8.598;2023-07-20T02:54:35;3.10;;;2.80;;
16262;SDS011;8239;48.594;8.598;2023-07-20T02:57:03;4.37;;;2.77;;
16262;SDS011;8239;48.594;8.598;2023-07-20T02:59:31;3.40;;;2.60;;
16262;SDS011;8239;48.594;8.598;2023-07-20T03:01:58;3.67;;;3.00;;
16262;SDS011;8239;48.594;8.598;2023-07-20T03:04:25;4.63;;;3.07;;
16262;SDS011;8239;48.594;8.598;2023-07-20T03:06:52;3.97;;;2.80;;
16262;SDS011;8239;48.594;8.598;2023-07-20T03:09:19;3.20;;;2.90;;
16262;SDS011;8239;48.594;8.598;2023-07-20T03:11:47;3.60;;;2.80;;
16262;SDS011;8239;48.594;8.598;2023-07-20T03:14:14;5.23;;;2.77;;
16262;SDS011;8239;48.594;8.598;2023-07-20T03:16:42;3.17;;;2.90;;
16262;SDS011;8239;48.594;8.598;2023-07-20T03:19:09;3.47;;;2.77;;
16262;SDS011;8239;48.594;8.598;2023-07-20T03:21:36;3.47;;;2.50;;
16262;SDS011;8239;48.594;8.598;2023-07-20T03:24:06;4.00;;;2.63;;
16262;SDS011;8239;48.594;8.598;2023-07-20T03:26:33;3.33;;;3.00;;
16262;SDS011;8239;48.594;8.598;2023-07-20T03:29:00;4.07;;;2.97;;
16262;SDS011;8239;48.594;8.598;2023-07-20T03:31:27;3.33;;;3.03;;
16262;SDS011;8239;48.594;8.598;2023-07-20T03:33:56;3.97;;;2.93;;
16262;SDS011;8239;48.594;8.598;2023-07-20T03:36:23;3.50;;;3.20;;
16262;SDS011;8239;48.594;8.598;2023-07-20T03:38:50;4.23;;;3.00;;
16262;SDS011;8239;48.594;8.598;2023-07-20T03:41:17;5.07;;;2.80;;
16262;SDS011;8239;48.594;8.598;2023-07-20T03:43:45;5.30;;;3.00;;
16262;SDS011;8239;48.594;8.598;2023-07-20T03:46:11;4.87;;;3.03;;
16262;SDS011;8239;48.594;8.598;2023-07-20T03:48:38;3.87;;;3.20;;
16262;SDS011;8239;48.594;8.598;2023-07-20T03:51:07;3.40;;;3.10;;
16262;SDS011;8239;48.594;8.598;2023-07-20T03:53:34;3.27;;;2.90;;
16262;SDS011;8239;48.594;8.598;2023-07-20T03:56:00;4.67;;;3.80;;
16262;SDS011;8239;48.594;8.598;2023-07-20T03:58:27;9.23;;;6.50;;
16262;SDS011;8239;48.594;8.598;2023-07-20T04:00:55;26.00;;;16.30;;
16262;SDS011;8239;48.594;8.598;2023-07-20T04:03:23;32.67;;;18.27;;
16262;SDS011;8239;48.594;8.598;2023-07-20T04:05:53;18.90;;;12.27;;
16262;SDS011;8239;48.594;8.598;2023-07-20T04:08:22;6.33;;;4.93;;
16262;SDS011;8239;48.594;8.598;2023-07-20T04:10:50;8.83;;;5.30;;
16262;SDS011;8239;48.594;8.598;2023-07-20T04:13:17;7.03;;;4.30;;
16262;SDS011;8239;48.594;8.598;2023-07-20T04:15:44;6.50;;;5.03;;
16262;SDS011;8239;48.594;8.598;2023-07-20T04:18:11;7.60;;;5.20;;
16262;SDS011;8239;48.594;8.598;2023-07-20T04:20:38;6.00;;;4.63;;
16262;SDS011;8239;48.594;8.598;2023-07-20T04:23:05;6.30;;;4.10;;
16262;SDS011;8239;48.594;8.598;2023-07-20T04:25:33;5.00;;;3.70;;
16262;SDS011;8239;48.594;8.598;2023-07-20T04:28:04;5.47;;;3.93;;
16262;SDS011;8239;48.594;8.598;2023-07-20T04:30:33;3.43;;;3.13;;
16262;SDS011;8239;48.594;8.598;2023-07-20T04:33:01;3.67;;;3.30;;
16262;SDS011;8239;48.594;8.598;2023-07-20T04:35:47;4.07;;;2.90;;
16262;SDS011;8239;48.594;8.598;2023-07-20T04:38:15;3.10;;;2.80;;
16262;SDS011;8239;48.594;8.598;2023-07-20T04:40:44;3.33;;;2.80;;
16262;SDS011;8239;48.594;8.598;2023-07-20T04:43:11;3.23;;;2.67;;
16262;SDS011;8239;48.594;8.598;2023-07-20T04:45:38;5.10;;;3.23;;
16262;SDS011;8239;48.594;8.598;2023-07-20T04:48:07;4.90;;;3.50;;
16262;SDS011;8239;48.594;8.598;2023-07-20T04:50:36;3.47;;;2.70;;
16262;SDS011;8239;48.594;8.598;2023-07-20T04:53:03;4.53;;;3.00;;
16262;SDS011;8239;48.594;8.598;2023-07-20T04:55:30;4.20;;;3.00;;
16262;SDS011;8239;48.594;8.598;2023-07-20T04:58:00;4.30;;;3.20;;
16262;SDS011;8239;48.594;8.598;2023-07-20T05:00:27;3.58;;;2.80;;
16262;SDS011;8239;48.594;8.598;2023-07-20T05:02:54;3.28;;;2.90;;
16262;SDS011;8239;48.594;8.598;2023-07-20T05:05:21;3.60;;;3.30;;
16262;SDS011;8239;48.594;8.598;2023-07-20T05:07:48;5.45;;;3.10;;
16262;SDS011;8239;48.594;8.598;2023-07-20T05:10:15;4.78;;;2.95;;
16262;SDS011;8239;48.594;8.598;2023-07-20T05:12:42;3.22;;;2.58;;
16262;SDS011;8239;48.594;8.598;2023-07-20T05:15:12;3.08;;;2.33;;
16262;SDS011;8239;48.594;8.598;2023-07-20T05:17:38;4.25;;;2.78;;
16262;SDS011;8239;48.594;8.598;2023-07-20T05:20:06;4.32;;;2.97;;
16262;SDS011;8239;48.594;8.598;2023-07-20T05:22:35;3.28;;;2.67;;
16262;SDS011;8239;48.594;8.598;2023-07-20T05:25:05;2.88;;;2.53;;
16262;SDS011;8239;48.594;8.598;2023-07-20T05:27:33;4.00;;;3.00;;
16262;SDS011;8239;48.594;8.598;2023-07-20T05:30:00;3.65;;;3.00;;
16262;SDS011;8239;48.594;8.598;2023-07-20T05:32:29;6.88;;;3.15;;
16262;SDS011;8239;48.594;8.598;2023-07-20T05:34:55;5.25;;;2.92;;
16262;SDS011;8239;48.594;8.598;2023-07-20T05:37:22;3.33;;;2.88;;
16262;SDS011;8239;48.594;8.598;2023-07-20T05:39:49;3.25;;;2.88;;
16262;SDS011;8239;48.594;8.598;2023-07-20T05:42:16;2.63;;;2.42;;
16262;SDS011;8239;48.594;8.598;2023-07-20T05:44:43;3.65;;;2.70;;
16262;SDS011;8239;48.594;8.598;2023-07-20T05:47:12;3.05;;;2.75;;
16262;SDS011;8239;48.594;8.598;2023-07-20T05:49:40;2.83;;;2.45;;
16262;SDS011;8239;48.594;8.598;2023-07-20T05:52:07;4.50;;;3.00;;
16262;SDS011;8239;48.594;8.598;2023-07-20T05:54:34;5.45;;;2.90;;
16262;SDS011;8239;48.594;8.598;2023-07-20T05:57:01;3.33;;;2.60;;
16262;SDS011;8239;48.594;8.598;2023-07-20T05:59:28;3.85;;;2.80;;
16262;SDS011;8239;48.594;8.598;2023-07-20T06:01:55;3.05;;;2.70;;
16262;SDS011;8239;48.594;8.598;2023-07-20T06:04:22;2.85;;;2.47;;
16262;SDS011;8239;48.594;8.598;2023-07-20T06:06:51;5.43;;;3.25;;
16262;SDS011;8239;48.594;8.598;2023-07-20T06:09:18;5.13;;;2.70;;
16262;SDS011;8239;48.594;8.598;2023-07-20T06:11:44;3.10;;;2.80;;
16262;SDS011;8239;48.594;8.598;2023-07-20T06:14:11;4.57;;;2.80;;
16262;SDS011;8239;48.594;8.598;2023-07-20T06:16:38;3.25;;;2.67;;
16262;SDS011;8239;48.594;8.598;2023-07-20T06:19:05;3.67;;;2.97;;
16262;SDS011;8239;48.594;8.598;2023-07-20T06:21:32;3.00;;;2.72;;
16262;SDS011;8239;48.594;8.598;2023-07-20T06:24:01;2.88;;;2.58;;
16262;SDS011;8239;48.594;8.598;2023-07-20T06:26:28;2.60;;;2.40;;
16262;SDS011;8239;48.594;8.598;2023-07-20T06:28:55;5.13;;;2.58;;
16262;SDS011;8239;48.594;8.598;2023-07-20T06:31:22;4.93;;;2.70;;
16262;SDS011;8239;48.594;8.598;2023-07-20T06:33:49;2.72;;;2.50;;
16262;SDS011;8239;48.594;8.598;2023-07-20T06:36:17;3.10;;;2.80;;
16262;SDS011;8239;48.594;8.598;2023-07-20T06:38:44;3.25;;;2.95;;
16262;SDS011;8239;48.594;8.598;2023-07-20T06:41:12;4.20;;;2.70;;
16262;SDS011;8239;48.594;8.598;2023-07-20T06:43:40;4.32;;;2.58;;
16262;SDS011;8239;48.594;8.598;2023-07-20T06:46:06;2.70;;;2.50;;
16262;SDS011;8239;48.594;8.598;2023-07-20T06:48:33;4.15;;;2.40;;
16262;SDS011;8239;48.594;8.598;2023-07-20T06:51:00;4.03;;;2.50;;
16262;SDS011;8239;48.594;8.598;2023-07-20T06:53:27;2.85;;;2.28;;
16262;SDS011;8239;48.594;8.598;2023-07-20T06:55:54;4.20;;;2.47;;
16262;SDS011;8239;48.594;8.598;2023-07-20T06:58:24;2.65;;;2.20;;
16262;SDS011;8239;48.594;8.598;2023-07-20T07:00:51;3.25;;;2.25;;
16262;SDS011;8239;48.594;8.598;2023-07-20T07:03:18;2.83;;;2.40;;
16262;SDS011;8239;48.594;8.598;2023-07-20T07:05:46;5.00;;;2.65;;
16262;SDS011;8239;48.594;8.598;2023-07-20T07:08:13;2.30;;;2.10;;
16262;SDS011;8239;48.594;8.598;2023-07-20T07:10:40;3.45;;;2.33;;
16262;SDS011;8239;48.594;8.598;2023-07-20T07:13:07;3.25;;;2.42;;
16262;SDS011;8239;48.594;8.598;2023-07-20T07:15:35;3.40;;;2.30;;
16262;SDS011;8239;48.594;8.598;2023-07-20T07:18:03;2.60;;;2.38;;
16262;SDS011;8239;48.594;8.598;2023-07-20T07:20:30;3.75;;;2.63;;
16262;SDS011;8239;48.594;8.598;2023-07-20T07:22:56;3.90;;;2.42;;
16262;SDS011;8239;48.594;8.598;2023-07-20T07:25:23;2.75;;;2.40;;
16262;SDS011;8239;48.594;8.598;2023-07-20T07:27:52;3.60;;;2.50;;
16262;SDS011;8239;48.594;8.598;2023-07-20T07:30:20;2.78;;;2.35;;
16262;SDS011;8239;48.594;8.598;2023-07-20T07:32:49;3.35;;;2.20;;
16262;SDS011;8239;48.594;8.598;2023-07-20T07:35:16;3.65;;;2.30;;
16262;SDS011;8239;48.594;8.598;2023-07-20T07:37:43;2.25;;;2.08;;
16262;SDS011;8239;48.594;8.598;2023-07-20T07:40:11;2.22;;;2.00;;
16262;SDS011;8239;48.594;8.598;2023-07-20T07:42:38;2.97;;;2.15;;
16262;SDS011;8239;48.594;8.598;2023-07-20T07:45:07;4.20;;;2.30;;
16262;SDS011;8239;48.594;8.598;2023-07-20T07:47:34;3.90;;;2.05;;
16262;SDS011;8239;48.594;8.598;2023-07-20T07:50:03;3.97;;;2.15;;
16262;SDS011;8239;48.594;8.598;2023-07-20T07:52:30;2.20;;;2.00;;
16262;SDS011;8239;48.594;8.598;2023-07-20T07:54:57;2.90;;;2.30;;
16262;SDS011;8239;48.594;8.598;2023-07-20T07:57:25;3.05;;;2.30;;
16262;SDS011;8239;48.594;8.598;2023-07-20T07:59:52;2.47;;;2.10;;
16262;SDS011;8239;48.594;8.598;2023-07-20T08:02:19;2.40;;;2.20;;
16262;SDS011;8239;48.594;8.598;2023-07-20T08:04:46;2.03;;;1.92;;
16262;SDS011;8239;48.594;8.598;2023-07-20T08:07:14;4.15;;;1.95;;
16262;SDS011;8239;48.594;8.598;2023-07-20T08:09:41;2.92;;;2.25;;
16262;SDS011;8239;48.594;8.598;2023-07-20T08:12:08;2.75;;;2.10;;
16262;SDS011;8239;48.594;8.598;2023-07-20T08:14:35;2.22;;;2.03;;
16262;SDS011;8239;48.594;8.598;2023-07-20T08:17:02;1.83;;;1.73;;
16262;SDS011;8239;48.594;8.598;2023-07-20T08:19:30;3.17;;;1.80;;
16262;SDS011;8239;48.594;8.598;2023-07-20T08:21:57;1.98;;;1.75;;
16262;SDS011;8239;48.594;8.598;2023-07-20T08:24:25;3.38;;;2.00;;
16262;SDS011;8239;48.594;8.598;2023-07-20T08:26:52;1.70;;;1.60;;
16262;SDS011;8239;48.594;8.598;2023-07-20T08:29:19;1.70;;;1.58;;
16262;SDS011;8239;48.594;8.598;2023-07-20T08:31:46;2.38;;;1.73;;
16262;SDS011;8239;48.594;8.598;2023-07-20T08:34:13;2.03;;;1.80;;
16262;SDS011;8239;48.594;8.598;2023-07-20T08:36:40;2.22;;;1.80;;
16262;SDS011;8239;48.594;8.598;2023-07-20T08:39:07;1.77;;;1.65;;
16262;SDS011;8239;48.594;8.598;2023-07-20T08:41:36;1.95;;;1.63;;
16262;SDS011;8239;48.594;8.598;2023-07-20T08:44:04;1.65;;;1.52;;
16262;SDS011;8239;48.594;8.598;2023-07-20T08:46:32;1.55;;;1.45;;
16262;SDS011;8239;48.594;8.598;2023-07-20T08:49:01;1.63;;;1.50;;
16262;SDS011;8239;48.594;8.598;2023-07-20T08:51:28;1.73;;;1.60;;
16262;SDS011;8239;48.594;8.598;2023-07-20T08:53:57;1.60;;;1.50;;
16262;SDS011;8239;48.594;8.598;2023-07-20T08:56:25;1.73;;;1.63;;
16262;SDS011;8239;48.594;8.598;2023-07-20T08:58:54;1.95;;;1.40;;
16262;SDS011;8239;48.594;8.598;2023-07-20T09:01:21;2.30;;;1.60;;
16262;SDS011;8239;48.594;8.598;2023-07-20T09:03:48;1.70;;;1.60;;
16262;SDS011;8239;48.594;8.598;2023-07-20T09:06:16;1.45;;;1.35;;
16262;SDS011;8239;48.594;8.598;2023-07-20T09:08:43;1.85;;;1.50;;
16262;SDS011;8239;48.594;8.598;2023-07-20T09:11:11;1.50;;;1.40;;
16262;SDS011;8239;48.594;8.598;2023-07-20T09:13:38;1.80;;;1.67;;
16262;SDS011;8239;48.594;8.598;2023-07-20T09:16:07;2.72;;;1.70;;
16262;SDS011;8239;48.594;8.598;2023-07-20T09:18:34;2.88;;;1.60;;
16262;SDS011;8239;48.594;8.598;2023-07-20T09:21:01;1.52;;;1.33;;
16262;SDS011;8239;48.594;8.598;2023-07-20T09:23:30;1.50;;;1.40;;
16262;SDS011;8239;48.594;8.598;2023-07-20T09:25:57;1.67;;;1.20;;
16262;SDS011;8239;48.594;8.598;2023-07-20T09:28:24;1.95;;;1.30;;
16262;SDS011;8239;48.594;8.598;2023-07-20T09:30:52;1.60;;;1.50;;
16262;SDS011;8239;48.594;8.598;2023-07-20T09:33:24;1.63;;;1.30;;
16262;SDS011;8239;48.594;8.598;2023-07-20T09:35:51;2.25;;;1.45;;
16262;SDS011;8239;48.594;8.598;2023-07-20T09:38:18;1.40;;;1.30;;
16262;SDS011;8239;48.594;8.598;2023-07-20T09:40:45;1.50;;;1.40;;
16262;SDS011;8239;48.594;8.598;2023-07-20T09:43:12;1.55;;;1.30;;
16262;SDS011;8239;48.594;8.598;2023-07-20T09:45:43;1.23;;;1.13;;
16262;SDS011;8239;48.594;8.598;2023-07-20T09:48:10;2.22;;;1.52;;
16262;SDS011;8239;48.594;8.598;2023-07-20T09:50:42;1.85;;;1.50;;
16262;SDS011;8239;48.594;8.598;2023-07-20T09:53:15;2.22;;;1.55;;
16262;SDS011;8239;48.594;8.598;2023-07-20T09:55:44;1.50;;;1.40;;
16262;SDS011;8239;48.594;8.598;2023-07-20T09:58:11;2.28;;;1.50;;
16262;SDS011;8239;48.594;8.598;2023-07-20T10:00:39;1.50;;;1.40;;
16262;SDS011;8239;48.594;8.598;2023-07-20T10:03:11;1.63;;;1.52;;
16262;SDS011;8239;48.594;8.598;2023-07-20T10:05:46;1.50;;;1.40;;
16262;SDS011;8239;48.594;8.598;2023-07-20T10:08:18;1.30;;;1.20;;
16262;SDS011;8239;48.594;8.598;2023-07-20T10:10:46;1.58;;;1.48;;
16262;SDS011;8239;48.594;8.598;2023-07-20T10:13:17;1.45;;;1.35;;
16262;SDS011;8239;48.594;8.598;2023-07-20T10:15:46;1.50;;;1.40;;
16262;SDS011;8239;48.594;8.598;2023-07-20T10:18:17;1.42;;;1.33;;
16262;SDS011;8239;48.594;8.598;2023-07-20T10:20:51;1.58;;;1.40;;
16262;SDS011;8239;48.594;8.598;2023-07-20T10:23:21;1.70;;;1.60;;
16262;SDS011;8239;48.594;8.598;2023-07-20T10:25:48;2.08;;;1.60;;
16262;SDS011;8239;48.594;8.598;2023-07-20T10:28:19;1.50;;;1.40;;
16262;SDS011;8239;48.594;8.598;2023-07-20T10:30:48;2.50;;;1.40;;
16262;SDS011;8239;48.594;8.598;2023-07-20T10:33:16;1.65;;;1.55;;
16262;SDS011;8239;48.594;8.598;2023-07-20T10:35:53;1.52;;;1.23;;
16262;SDS011;8239;48.594;8.598;2023-07-20T10:41:15;1.45;;;1.35;;
16262;SDS011;8239;48.594;8.598;2023-07-20T10:43:43;1.42;;;1.33;;
16262;SDS011;8239;48.594;8.598;2023-07-20T10:46:11;1.70;;;1.60;;
16262;SDS011;8239;48.594;8.598;2023-07-20T10:51:28;2.67;;;1.65;;
16262;SDS011;8239;48.594;8.598;2023-07-20T10:53:56;1.88;;;1.58;;
16262;SDS011;8239;48.594;8.598;2023-07-20T10:56:25;2.15;;;1.50;;
16262;SDS011;8239;48.594;8.598;2023-07-20T10:58:57;2.45;;;1.50;;
16262;SDS011;8239;48.594;8.598;2023-07-20T11:01:27;1.98;;;1.42;;
16262;SDS011;8239;48.594;8.598;2023-07-20T11:03:57;2.25;;;1.45;;
16262;SDS011;8239;48.594;8.598;2023-07-20T11:06:31;2.20;;;1.60;;
16262;SDS011;8239;48.594;8.598;2023-07-20T11:09:03;1.58;;;1.48;;
16262;SDS011;8239;48.594;8.598;2023-07-20T11:11:32;1.98;;;1.55;;
16262;SDS011;8239;48.594;8.598;2023-07-20T11:14:00;1.85;;;1.45;;
16262;SDS011;8239;48.594;8.598;2023-07-20T11:16:35;1.63;;;1.42;;
16262;SDS011;8239;48.594;8.598;2023-07-20T11:19:04;1.17;;;1.17;;
16262;SDS011;8239;48.594;8.598;2023-07-20T11:21:36;1.85;;;1.50;;
16262;SDS011;8239;48.594;8.598;2023-07-20T11:24:05;2.25;;;1.42;;
16262;SDS011;8239;48.594;8.598;2023-07-20T11:29:19;1.70;;;1.60;;
16262;SDS011;8239;48.594;8.598;2023-07-20T11:31:48;2.13;;;1.40;;
16262;SDS011;8239;48.594;8.598;2023-07-20T11:34:16;1.92;;;1.55;;
16262;SDS011;8239;48.594;8.598;2023-07-20T11:36:46;2.05;;;1.70;;
16262;SDS011;8239;48.594;8.598;2023-07-20T11:39:14;1.40;;;1.30;;
16262;SDS011;8239;48.594;8.598;2023-07-20T11:41:46;2.50;;;1.73;;
16262;SDS011;8239;48.594;8.598;2023-07-20T11:44:15;2.13;;;1.63;;
16262;SDS011;8239;48.594;8.598;2023-07-20T11:46:42;1.50;;;1.40;;
16262;SDS011;8239;48.594;8.598;2023-07-20T11:49:10;3.00;;;1.60;;
16262;SDS011;8239;48.594;8.598;2023-07-20T11:51:38;1.90;;;1.42;;
16262;SDS011;8239;48.594;8.598;2023-07-20T11:54:08;2.13;;;1.80;;
16262;SDS011;8239;48.594;8.598;2023-07-20T11:56:36;2.95;;;2.42;;
16262;SDS011;8239;48.594;8.598;2023-07-20T11:59:09;2.25;;;1.42;;
16262;SDS011;8239;48.594;8.598;2023-07-20T12:01:36;1.48;;;1.38;;
16262;SDS011;8239;48.594;8.598;2023-07-20T12:04:03;1.85;;;1.42;;
16262;SDS011;8239;48.594;8.598;2023-07-20T12:06:32;1.70;;;1.40;;
16262;SDS011;8239;48.594;8.598;2023-07-20T12:08:59;2.28;;;1.60;;
16262;SDS011;8239;48.594;8.598;2023-07-20T12:11:34;1.77;;;1.67;;
16262;SDS011;8239;48.594;8.598;2023-07-20T12:14:02;1.73;;;1.58;;
16262;SDS011;8239;48.594;8.598;2023-07-20T12:16:30;1.35;;;1.33;;
16262;SDS011;8239;48.594;8.598;2023-07-20T12:19:00;2.00;;;1.50;;
16262;SDS011;8239;48.594;8.598;2023-07-20T12:21:28;1.80;;;1.70;;
16262;SDS011;8239;48.594;8.598;2023-07-20T12:23:56;2.10;;;1.75;;
16262;SDS011;8239;48.594;8.598;2023-07-20T12:26:23;2.00;;;1.80;;
16262;SDS011;8239;48.594;8.598;2023-07-20T12:28:52;2.03;;;1.50;;
16262;SDS011;8239;48.594;8.598;2023-07-20T12:31:20;1.65;;;1.50;;
16262;SDS011;8239;48.594;8.598;2023-07-20T12:33:49;1.60;;;1.50;;
16262;SDS011;8239;48.594;8.598;2023-07-20T12:36:16;1.65;;;1.55;;
16262;SDS011;8239;48.594;8.598;2023-07-20T12:38:44;1.70;;;1.60;;
16262;SDS011;8239;48.594;8.598;2023-07-20T12:41:11;1.75;;;1.60;;
16262;SDS011;8239;48.594;8.598;2023-07-20T12:43:39;2.28;;;1.73;;
16262;SDS011;8239;48.594;8.598;2023-07-20T12:46:08;3.10;;;1.60;;
16262;SDS011;8239;48.594;8.598;2023-07-20T12:48:36;1.60;;;1.50;;
16262;SDS011;8239;48.594;8.598;2023-07-20T12:51:05;1.55;;;1.45;;
16262;SDS011;8239;48.594;8.598;2023-07-20T12:53:32;2.55;;;1.50;;
16262;SDS011;8239;48.594;8.598;2023-07-20T12:56:00;3.08;;;2.78;;
16262;SDS011;8239;48.594;8.598;2023-07-20T12:58:27;1.65;;;1.55;;
16262;SDS011;8239;48.594;8.598;2023-07-20T13:00:54;3.03;;;2.72;;
16262;SDS011;8239;48.594;8.598;2023-07-20T13:03:22;3.33;;;1.95;;
16262;SDS011;8239;48.594;8.598;2023-07-20T13:05:49;1.70;;;1.60;;
16262;SDS011;8239;48.594;8.598;2023-07-20T13:08:16;1.85;;;1.60;;
16262;SDS011;8239;48.594;8.598;2023-07-20T13:10:44;1.75;;;1.58;;
16262;SDS011;8239;48.594;8.598;2023-07-20T13:13:11;2.13;;;1.90;;
16262;SDS011;8239;48.594;8.598;2023-07-20T13:15:42;1.70;;;1.60;;
16262;SDS011;8239;48.594;8.598;2023-07-20T13:18:11;2.78;;;2.20;;
16262;SDS011;8239;48.594;8.598;2023-07-20T13:20:39;1.80;;;1.70;;
16262;SDS011;8239;48.594;8.598;2023-07-20T13:23:06;1.83;;;1.58;;
16262;SDS011;8239;48.594;8.598;2023-07-20T13:25:33;1.73;;;1.60;;
16262;SDS011;8239;48.594;8.598;2023-07-20T13:28:00;1.58;;;1.48;;
16262;SDS011;8239;48.594;8.598;2023-07-20T13:30:27;2.78;;;1.70;;
16262;SDS011;8239;48.594;8.598;2023-07-20T13:32:54;2.05;;;1.48;;
16262;SDS011;8239;48.594;8.598;2023-07-20T13:35:21;2.10;;;1.60;;
16262;SDS011;8239;48.594;8.598;2023-07-20T13:37:49;2.03;;;1.65;;
16262;SDS011;8239;48.594;8.598;2023-07-20T13:40:16;2.58;;;1.70;;
16262;SDS011;8239;48.594;8.598;2023-07-20T13:42:44;1.95;;;1.70;;
16262;SDS011;8239;48.594;8.598;2023-07-20T13:45:11;1.92;;;1.70;;
16262;SDS011;8239;48.594;8.598;2023-07-20T13:47:38;1.75;;;1.65;;
16262;SDS011;8239;48.594;8.598;2023-07-20T13:50:05;2.13;;;1.90;;
16262;SDS011;8239;48.594;8.598;2023-07-20T13:52:33;2.03;;;1.60;;
16262;SDS011;8239;48.594;8.598;2023-07-20T13:55:03;2.03;;;1.75;;
16262;SDS011;8239;48.594;8.598;2023-07-20T13:57:30;2.05;;;1.80;;
16262;SDS011;8239;48.594;8.598;2023-07-20T13:59:58;1.80;;;1.67;;
16262;SDS011;8239;48.594;8.598;2023-07-20T14:02:26;1.75;;;1.52;;
16262;SDS011;8239;48.594;8.598;2023-07-20T14:04:53;2.55;;;1.58;;
16262;SDS011;8239;48.594;8.598;2023-07-20T14:07:21;2.22;;;1.52;;
16262;SDS011;8239;48.594;8.598;2023-07-20T14:09:48;1.65;;;1.50;;
16262;SDS011;8239;48.594;8.598;2023-07-20T14:12:16;2.20;;;1.45;;
16262;SDS011;8239;48.594;8.598;2023-07-20T14:14:43;2.42;;;1.50;;
16262;SDS011;8239;48.594;8.598;2023-07-20T14:17:10;1.80;;;1.58;;
16262;SDS011;8239;48.594;8.598;2023-07-20T14:19:37;3.10;;;1.90;;
16262;SDS011;8239;48.594;8.598;2023-07-20T14:22:05;1.88;;;1.45;;
16262;SDS011;8239;48.594;8.598;2023-07-20T14:24:32;2.00;;;1.90;;
16262;SDS011;8239;48.594;8.598;2023-07-20T14:26:59;2.45;;;1.45;;
16262;SDS011;8239;48.594;8.598;2023-07-20T14:29:28;3.15;;;1.90;;
16262;SDS011;8239;48.594;8.598;2023-07-20T14:31:56;1.70;;;1.60;;
16262;SDS011;8239;48.594;8.598;2023-07-20T14:34:24;1.70;;;1.60;;
16262;SDS011;8239;48.594;8.598;2023-07-20T14:36:51;1.60;;;1.50;;
16262;SDS011;8239;48.594;8.598;2023-07-20T14:39:19;2.03;;;1.60;;
16262;SDS011;8239;48.594;8.598;2023-07-20T14:41:46;2.17;;;1.50;;
16262;SDS011;8239;48.594;8.598;2023-07-20T14:44:15;1.95;;;1.70;;
16262;SDS011;8239;48.594;8.598;2023-07-20T14:46:44;2.22;;;1.58;;
16262;SDS011;8239;48.594;8.598;2023-07-20T14:49:11;1.63;;;1.52;;
16262;SDS011;8239;48.594;8.598;2023-07-20T14:51:38;1.60;;;1.50;;
16262;SDS011;8239;48.594;8.598;2023-07-20T14:54:08;2.03;;;1.65;;
16262;SDS011;8239;48.594;8.598;2023-07-20T14:56:37;1.85;;;1.55;;
16262;SDS011;8239;48.594;8.598;2023-07-20T14:59:05;1.73;;;1.50;;
16262;SDS011;8239;48.594;8.598;2023-07-20T15:01:32;1.70;;;1.60;;
16262;SDS011;8239;48.594;8.598;2023-07-20T15:04:01;2.22;;;1.63;;
16262;SDS011;8239;48.594;8.598;2023-07-20T15:06:28;2.72;;;1.50;;
16262;SDS011;8239;48.594;8.598;2023-07-20T15:08:55;1.77;;;1.63;;
16262;SDS011;8239;48.594;8.598;2023-07-20T15:11:23;1.83;;;1.73;;
16262;SDS011;8239;48.594;8.598;2023-07-20T15:13:51;1.60;;;1.50;;